Time;durP1;ratioP1;P1;durP2;ratioP2;P2;SDS_P1;SDS_P2;PMS_P1;PMS_P2;Temp;Humidity;BMP_temperature;BMP_pressure;BME280_temperature;BME280_humidity;BME280_pressure;Samples;Min_cycle;Max_cycle;Signal;HPM_P1;HPM_P2
2023/07/01 00:01:42;;;;;;;7.03;2.20;;;;;;;17.95;100.00;100806.38;5055744;28;20552;-77
2023/07/01 00:04:07;;;;;;;6.30;1.90;;;;;;;17.91;100.00;100791.66;5049970;28;20191;-76
2023/07/01 00:06:33;;;;;;;6.53;2.40;;;;;;;16.92;100.00;100641.22;5054113;28;20498;-76
2023/07/01 00:08:58;;;;;;;7.43;2.30;;;;;;;17.69;100.00;100762.53;5055003;28;20695;-76
2023/07/01 00:11:24;;;;;;;7.33;2.03;;;;;;;17.72;100.00;100759.34;5056143;28;20204;-76
2023/07/01 00:13:49;;;;;;;7.67;2.23;;;;;;;17.80;100.00;100772.50;5054335;28;20219;-76
2023/07/01 00:16:14;;;;;;;6.80;2.17;;;;;;;17.80;100.00;100771.69;5085844;27;20191;-78
2023/07/01 00:18:41;;;;;;;5.50;2.07;;;;;;;17.80;100.00;100763.56;5054941;28;20187;-80
2023/07/01 00:21:07;;;;;;;10.03;2.47;;;;;;;17.70;100.00;100720.78;5055652;28;20217;-77
2023/07/01 00:23:32;;;;;;;7.70;2.47;;;;;;;17.68;100.00;100762.81;5054426;28;20442;-77
2023/07/01 00:25:58;;;;;;;9.37;2.33;;;;;;;17.70;100.00;100728.91;5050943;28;21021;-76
2023/07/01 00:28:23;;;;;;;7.23;2.80;;;;;;;17.92;100.00;100753.41;5085107;28;20278;-76
2023/07/01 00:30:49;;;;;;;9.67;2.50;;;;;;;17.84;100.00;100751.94;5061005;28;20204;-76
2023/07/01 00:33:14;;;;;;;3.50;1.97;;;;;;;17.66;100.00;100757.63;5054175;28;20753;-76
2023/07/01 00:35:40;;;;;;;7.33;2.37;;;;;;;17.56;100.00;100761.00;5056446;28;20293;-82
2023/07/01 00:38:05;;;;;;;5.20;2.03;;;;;;;17.51;100.00;100762.81;5055578;28;20615;-76
2023/07/01 00:40:31;;;;;;;4.87;2.27;;;;;;;17.54;100.00;100767.75;5057225;28;20190;-77
2023/07/01 00:42:56;;;;;;;5.80;2.20;;;;;;;17.65;100.00;100753.28;5056576;28;20305;-77
2023/07/01 00:45:22;;;;;;;8.07;2.50;;;;;;;17.03;100.00;100688.28;5054130;28;20192;-79
2023/07/01 00:47:48;;;;;;;6.10;2.40;;;;;;;17.52;100.00;100762.53;5053564;28;20191;-79
2023/07/01 00:50:14;;;;;;;12.23;2.30;;;;;;;17.47;100.00;100764.34;5054429;28;20242;-78
2023/07/01 00:52:41;;;;;;;8.77;2.60;;;;;;;17.43;100.00;100777.59;5070373;28;20246;-79
2023/07/01 00:55:08;;;;;;;7.30;2.37;;;;;;;17.46;100.00;100797.97;5056214;28;21028;-80
2023/07/01 00:57:33;;;;;;;8.63;2.80;;;;;;;17.35;100.00;100830.31;5056778;28;20434;-82
2023/07/01 01:00:03;;;;;;;4.93;2.30;;;;;;;16.48;100.00;100687.81;5088774;27;20457;-76
2023/07/01 01:02:36;;;;;;;5.70;2.60;;;;;;;17.09;100.00;100804.63;5053178;28;20221;-77
2023/07/01 01:05:10;;;;;;;4.43;2.20;;;;;;;16.73;100.00;100795.81;5061927;28;20493;-80
2023/07/01 01:08:08;;;;;;;9.50;2.43;;;;;;;17.39;100.00;100953.50;5054082;28;20437;-76
2023/07/01 01:10:38;;;;;;;7.33;2.60;;;;;;;16.90;100.00;100939.47;5052798;28;20474;-80
2023/07/01 01:13:05;;;;;;;8.50;2.77;;;;;;;17.37;100.00;101026.09;5050603;28;20460;-78
2023/07/01 01:15:31;;;;;;;6.50;3.03;;;;;;;16.67;100.00;100964.69;5053255;28;20473;-79
2023/07/01 01:18:01;;;;;;;4.43;2.00;;;;;;;17.14;100.00;101089.31;5053517;28;20486;-81
2023/07/01 01:20:30;;;;;;;8.40;2.23;;;;;;;16.88;100.00;101249.63;5052072;28;20624;-78
2023/07/01 01:23:00;;;;;;;9.50;2.50;;;;;;;17.40;100.00;101455.94;5052208;28;20472;-78
2023/07/01 01:25:48;;;;;;;9.53;2.80;;;;;;;17.24;100.00;101552.31;5050465;28;21043;-78
2023/07/01 01:28:15;;;;;;;4.40;2.50;;;;;;;16.71;100.00;101528.41;5077156;28;20454;-79
2023/07/01 01:30:40;;;;;;;6.73;1.90;;;;;;;17.42;100.00;101654.53;5047995;28;20914;-79
2023/07/01 01:33:06;;;;;;;5.03;3.20;;;;;;;17.40;100.00;101641.16;5044575;28;20453;-79
2023/07/01 01:35:31;;;;;;;10.03;2.40;;;;;;;17.20;100.00;101612.59;5049638;28;20521;-78
2023/07/01 01:38:00;;;;;;;6.33;2.37;;;;;;;17.24;100.00;101641.78;5052805;28;20713;-79
2023/07/01 01:40:31;;;;;;;6.80;2.20;;;;;;;17.32;100.00;101657.72;5051425;28;20187;-78
2023/07/01 01:43:17;;;;;;;6.90;2.60;;;;;;;17.37;100.00;101679.59;5053854;28;20469;-77
2023/07/01 01:45:44;;;;;;;3.30;1.93;;;;;;;17.34;100.00;101701.72;5048723;28;20473;-78
2023/07/01 01:48:11;;;;;;;10.30;2.90;;;;;;;17.15;100.00;101687.31;5051474;28;20459;-79
2023/07/01 01:50:40;;;;;;;8.63;2.30;;;;;;;17.20;100.00;101694.75;5048210;28;21027;-78
2023/07/01 01:53:06;;;;;;;8.70;2.40;;;;;;;16.49;100.00;101574.84;5050754;28;20490;-78
2023/07/01 01:55:32;;;;;;;10.40;2.87;;;;;;;16.17;100.00;101495.56;5049333;28;20933;-80
2023/07/01 01:57:59;;;;;;;5.10;2.30;;;;;;;17.32;100.00;101671.28;5050008;28;20500;-80
2023/07/01 02:00:25;;;;;;;6.97;2.60;;;;;;;17.45;100.00;101693.94;5048840;28;20505;-80
2023/07/01 02:02:51;;;;;;;3.90;2.10;;;;;;;16.59;100.00;101517.47;5047563;28;20890;-78
2023/07/01 02:05:16;;;;;;;6.67;2.40;;;;;;;17.39;100.00;101658.50;5047578;28;21020;-78
2023/07/01 02:07:41;;;;;;;4.83;1.90;;;;;;;17.36;100.00;101637.25;5052699;28;20290;-78
2023/07/01 02:10:07;;;;;;;4.60;2.27;;;;;;;17.59;100.00;101638.50;5047179;28;20222;-79
2023/07/01 02:12:33;;;;;;;8.90;2.47;;;;;;;16.79;100.00;101530.03;5048212;28;20202;-78
2023/07/01 02:14:58;;;;;;;8.33;2.50;;;;;;;17.22;100.00;101564.44;5050839;28;20442;-79
2023/07/01 02:17:24;;;;;;;11.70;4.43;;;;;;;16.90;100.00;101467.81;5078585;28;20189;-80
2023/07/01 02:19:49;;;;;;;10.23;2.60;;;;;;;16.76;100.00;101365.22;5047799;28;20182;-78
2023/07/01 02:22:15;;;;;;;10.23;3.07;;;;;;;16.95;100.00;101337.06;5045227;28;20293;-81
2023/07/01 02:24:40;;;;;;;6.83;2.67;;;;;;;16.82;100.00;101278.47;5050053;28;20306;-84
2023/07/01 02:27:06;;;;;;;7.37;2.83;;;;;;;15.46;100.00;101074.03;5047953;28;20226;-81
2023/07/01 02:29:31;;;;;;;9.10;2.93;;;;;;;16.47;100.00;101214.13;5049375;28;20195;-81
2023/07/01 02:31:57;;;;;;;8.47;3.20;;;;;;;16.43;100.00;101204.81;5044098;28;20210;-78
2023/07/01 02:34:26;;;;;;;10.93;3.40;;;;;;;16.44;100.00;101179.38;5050093;28;20199;-84
2023/07/01 02:36:55;;;;;;;8.80;3.43;;;;;;;16.49;100.00;101168.69;5047767;28;20274;-85
2023/07/01 02:39:21;;;;;;;12.00;3.13;;;;;;;16.25;100.00;101134.44;5061592;28;20484;-82
2023/07/01 02:41:47;;;;;;;11.80;3.20;;;;;;;15.99;100.00;101108.56;5047945;28;20532;-82
2023/07/01 02:44:12;;;;;;;11.13;3.30;;;;;;;15.64;100.00;101014.53;5052448;28;20606;-84
2023/07/01 02:46:38;;;;;;;14.27;4.80;;;;;;;15.37;100.00;100995.13;5083825;28;20198;-84
2023/07/01 02:49:04;;;;;;;10.80;3.70;;;;;;;15.38;100.00;100994.06;5049817;28;20219;-79
2023/07/01 02:51:29;;;;;;;20.27;4.20;;;;;;;15.94;100.00;101109.25;5086481;28;20211;-84
2023/07/01 02:53:55;;;;;;;6.70;3.10;;;;;;;15.92;100.00;101049.16;5053795;28;20442;-82
2023/07/01 02:56:20;;;;;;;12.33;3.30;;;;;;;15.82;100.00;101078.59;5052297;28;20191;-83
2023/07/01 02:58:46;;;;;;;12.80;4.20;;;;;;;14.73;100.00;100894.69;5049631;28;20277;-83
2023/07/01 03:01:12;;;;;;;4.93;3.30;;;;;;;15.59;100.00;101044.97;5057356;28;20265;-82
2023/07/01 03:03:38;;;;;;;10.47;3.57;;;;;;;15.73;100.00;101074.56;5047299;28;20651;-84
2023/07/01 03:06:03;;;;;;;7.40;3.83;;;;;;;14.27;100.00;100792.59;5079664;28;20446;-84
2023/07/01 03:08:28;;;;;;;7.50;4.10;;;;;;;15.11;100.00;100909.81;5056465;28;20218;-83
2023/07/01 03:10:54;;;;;;;9.00;4.03;;;;;;;15.36;100.00;100983.50;5056605;28;20211;-84
2023/07/01 03:13:19;;;;;;;9.73;4.03;;;;;;;15.23;100.00;100953.91;5054806;28;20247;-83
2023/07/01 03:15:45;;;;;;;11.30;3.90;;;;;;;14.74;100.00;100880.13;5053290;28;20523;-84
2023/07/01 03:18:10;;;;;;;6.97;3.87;;;;;;;15.20;100.00;100932.75;5053744;28;20669;-82
2023/07/01 03:20:36;;;;;;;8.67;4.83;;;;;;;15.90;100.00;101043.13;5051768;28;20714;-82
2023/07/01 03:23:01;;;;;;;7.77;3.33;;;;;;;15.03;100.00;100881.22;5052774;28;20211;-84
2023/07/01 03:25:27;;;;;;;9.93;4.30;;;;;;;15.64;100.00;100957.75;5054340;28;20191;-81
2023/07/01 03:27:53;;;;;;;6.43;3.47;;;;;;;15.83;100.00;100963.97;5055084;28;20180;-84
2023/07/01 03:30:23;;;;;;;8.50;3.50;;;;;;;16.32;100.00;101042.34;5088505;28;20476;-82
2023/07/01 03:32:48;;;;;;;17.80;3.97;;;;;;;16.50;100.00;101056.59;5052102;28;20434;-86
2023/07/01 03:35:15;;;;;;;9.80;4.30;;;;;;;16.42;100.00;101061.53;5060173;28;20483;-82
2023/07/01 03:37:42;;;;;;;7.17;3.60;;;;;;;16.22;100.00;101035.59;5079812;28;20226;-82
2023/07/01 03:40:12;;;;;;;7.73;3.27;;;;;;;16.11;100.00;101019.31;5045080;28;20482;-82
2023/07/01 03:42:41;;;;;;;7.90;3.70;;;;;;;16.45;100.00;101077.31;5048363;28;20480;-78
2023/07/01 03:45:08;;;;;;;8.53;3.27;;;;;;;15.69;100.00;100941.69;5049847;28;20452;-81
2023/07/01 03:47:43;;;;;;;9.63;3.43;;;;;;;16.57;100.00;101066.50;5052235;28;20937;-79
2023/07/01 03:50:11;;;;;;;10.17;3.43;;;;;;;16.46;100.00;101066.25;5053552;28;20469;-82
2023/07/01 03:52:40;;;;;;;10.10;3.20;;;;;;;16.47;100.00;101069.78;5052669;28;20454;-81
2023/07/01 03:55:08;;;;;;;9.40;3.40;;;;;;;15.96;100.00;100968.34;5054379;28;20449;-81
2023/07/01 03:57:34;;;;;;;12.53;3.80;;;;;;;16.53;100.00;101059.91;5054467;28;20529;-81
2023/07/01 04:00:08;;;;;;;10.90;3.70;;;;;;;16.67;100.00;101045.91;5055206;28;20938;-81
2023/07/01 04:02:35;;;;;;;11.03;2.80;;;;;;;16.47;100.00;101026.47;5053437;28;21021;-82
2023/07/01 04:05:09;;;;;;;6.33;3.20;;;;;;;16.49;100.00;101037.91;5053803;28;20489;-81
2023/07/01 04:07:45;;;;;;;6.60;3.00;;;;;;;16.60;100.00;101028.94;5056099;28;20983;-81
2023/07/01 04:10:11;;;;;;;6.57;3.33;;;;;;;16.16;100.00;100968.03;5058306;28;21099;-81
2023/07/01 04:12:38;;;;;;;7.67;3.20;;;;;;;15.98;100.00;100902.13;5056545;28;20483;-81
2023/07/01 04:15:11;;;;;;;5.77;2.90;;;;;;;16.32;100.00;100975.50;5052947;28;20191;-82
2023/07/01 04:17:44;;;;;;;6.70;2.87;;;;;;;16.58;100.00;101031.09;5056306;28;20437;-81
2023/07/01 04:20:11;;;;;;;4.70;2.93;;;;;;;16.57;100.00;101004.22;5055573;28;21433;-81
2023/07/01 04:22:37;;;;;;;7.37;3.00;;;;;;;16.42;100.00;101005.50;5057639;28;20460;-80
2023/07/01 04:25:03;;;;;;;5.80;3.40;;;;;;;16.31;100.00;100954.88;5054961;28;20863;-80
2023/07/01 04:27:29;;;;;;;14.17;4.03;;;;;;;15.71;100.00;100898.22;5055970;28;20450;-81
2023/07/01 04:29:55;;;;;;;5.03;3.20;;;;;;;16.24;100.00;100990.19;5055472;28;20491;-81
2023/07/01 04:32:20;;;;;;;7.40;3.43;;;;;;;15.59;100.00;100868.38;5056651;28;21287;-80
2023/07/01 04:34:45;;;;;;;9.50;4.03;;;;;;;16.50;100.00;100986.22;5052738;28;20215;-77
2023/07/01 04:37:11;;;;;;;4.30;2.70;;;;;;;16.21;100.00;100997.94;5053349;28;20266;-79
2023/07/01 04:39:36;;;;;;;6.60;2.50;;;;;;;16.45;100.00;100998.81;5052972;28;20180;-82
2023/07/01 04:42:03;;;;;;;11.13;3.23;;;;;;;16.53;100.00;101003.06;5052161;28;20731;-81
2023/07/01 04:44:28;;;;;;;7.60;3.40;;;;;;;16.32;100.00;100999.84;5053076;28;20198;-80
2023/07/01 04:46:54;;;;;;;8.23;2.70;;;;;;;16.13;100.00;100960.38;5052797;28;20457;-81
2023/07/01 04:49:19;;;;;;;5.53;3.07;;;;;;;16.27;100.00;101002.44;5054360;28;20207;-78
2023/07/01 04:51:45;;;;;;;10.37;3.07;;;;;;;16.37;100.00;100988.31;5055661;28;20698;-82
2023/07/01 04:54:10;;;;;;;5.40;3.10;;;;;;;16.45;100.00;101002.31;5053642;28;20191;-82
2023/07/01 04:56:36;;;;;;;9.17;3.00;;;;;;;15.73;100.00;100883.38;5049852;28;20697;-82
2023/07/01 04:59:02;;;;;;;10.97;2.90;;;;;;;16.01;100.00;100938.72;5054120;28;20202;-81
2023/07/01 05:01:27;;;;;;;5.13;3.00;;;;;;;16.14;100.00;100959.31;5051822;28;20306;-83
2023/07/01 05:03:53;;;;;;;8.03;3.70;;;;;;;16.02;100.00;100922.25;5055102;28;20542;-77
2023/07/01 05:06:18;;;;;;;8.27;3.00;;;;;;;16.31;100.00;100981.94;5052706;28;20191;-81
2023/07/01 05:08:45;;;;;;;6.73;3.07;;;;;;;15.60;100.00;100870.88;5053987;28;20237;-83
2023/07/01 05:11:10;;;;;;;8.67;3.73;;;;;;;16.03;100.00;100947.44;5053652;28;20307;-81
2023/07/01 05:13:36;;;;;;;4.40;2.93;;;;;;;16.26;100.00;100947.47;5048775;28;20922;-77
2023/07/01 05:16:01;;;;;;;4.67;2.63;;;;;;;15.89;100.00;100890.00;5046594;28;20723;-85
2023/07/01 05:18:27;;;;;;;9.60;3.80;;;;;;;16.13;100.00;100963.09;5051341;28;20190;-80
2023/07/01 05:20:52;;;;;;;4.07;3.07;;;;;;;16.22;100.00;100950.88;5049431;28;20203;-83
2023/07/01 05:23:17;;;;;;;9.73;3.37;;;;;;;16.21;100.00;100962.75;5049855;28;20178;-81
2023/07/01 05:25:43;;;;;;;6.87;3.27;;;;;;;15.79;100.00;100906.81;5045811;28;20563;-79
2023/07/01 05:28:08;;;;;;;7.87;3.70;;;;;;;15.67;100.00;100853.72;5046426;28;20191;-76
2023/07/01 05:30:34;;;;;;;8.93;3.30;;;;;;;16.10;100.00;100937.31;5051262;28;20235;-81
2023/07/01 05:32:59;;;;;;;5.60;3.20;;;;;;;16.16;100.00;100946.41;5050231;28;20652;-84
2023/07/01 05:35:25;;;;;;;6.33;3.23;;;;;;;15.78;100.00;100882.69;5051809;28;20274;-81
2023/07/01 05:37:52;;;;;;;9.83;3.00;;;;;;;15.57;100.00;100854.28;5053157;28;20187;-82
2023/07/01 05:40:18;;;;;;;6.13;3.40;;;;;;;15.48;100.00;100875.44;5046417;28;20664;-83
2023/07/01 05:42:45;;;;;;;7.03;3.63;;;;;;;16.21;100.00;100962.75;5052431;28;20473;-76
2023/07/01 05:45:11;;;;;;;5.40;3.07;;;;;;;16.33;100.00;100960.06;5049190;28;20636;-82
2023/07/01 05:47:37;;;;;;;4.10;2.73;;;;;;;16.21;100.00;100962.75;5048309;28;20438;-82
2023/07/01 05:50:02;;;;;;;5.10;3.00;;;;;;;16.19;100.00;100962.16;5052285;28;20997;-82
2023/07/01 05:52:28;;;;;;;6.47;3.40;;;;;;;16.02;100.00;100932.25;5050896;28;20227;-83
2023/07/01 05:54:53;;;;;;;7.07;3.43;;;;;;;16.14;100.00;100964.75;5047520;28;20203;-82
2023/07/01 05:57:19;;;;;;;10.17;4.00;;;;;;;15.81;100.00;100945.25;5050197;28;20183;-80
2023/07/01 05:59:44;;;;;;;7.03;3.70;;;;;;;15.53;100.00;100891.75;5050337;28;21074;-82
2023/07/01 06:02:10;;;;;;;11.30;3.87;;;;;;;15.59;100.00;100885.47;5047602;28;20217;-81
2023/07/01 06:04:35;;;;;;;6.87;4.20;;;;;;;16.08;100.00;100966.50;5050503;28;20203;-81
2023/07/01 06:07:00;;;;;;;6.30;3.20;;;;;;;15.97;100.00;100946.50;5046026;28;20666;-81
2023/07/01 06:09:26;;;;;;;6.73;3.53;;;;;;;16.10;100.00;100966.28;5077111;28;20210;-82
2023/07/01 06:11:52;;;;;;;4.23;3.30;;;;;;;16.24;100.00;100960.41;5047067;28;20207;-82
2023/07/01 06:14:18;;;;;;;7.43;3.43;;;;;;;15.17;100.00;100814.34;5047161;28;20184;-81
2023/07/01 06:16:43;;;;;;;7.80;3.40;;;;;;;14.77;100.00;100722.25;5051270;28;20442;-81
2023/07/01 06:19:09;;;;;;;6.20;3.93;;;;;;;16.18;100.00;100961.34;5047558;28;20183;-81
2023/07/01 06:21:34;;;;;;;6.00;3.40;;;;;;;16.25;100.00;100953.94;5050789;28;20206;-82
2023/07/01 06:24:00;;;;;;;6.47;3.57;;;;;;;16.14;100.00;100937.69;5047245;28;20572;-81
2023/07/01 06:26:25;;;;;;;5.80;3.90;;;;;;;16.41;100.00;100959.72;5049816;28;20543;-81
2023/07/01 06:28:51;;;;;;;5.80;3.33;;;;;;;15.54;100.00;100804.22;5048460;28;20216;-80
2023/07/01 06:31:16;;;;;;;4.63;3.30;;;;;;;16.32;100.00;100964.66;5048959;28;20286;-80
2023/07/01 06:33:41;;;;;;;10.17;5.23;;;;;;;15.72;100.00;100852.00;5059848;28;20196;-81
2023/07/01 06:36:07;;;;;;;5.67;3.40;;;;;;;16.19;100.00;100935.91;5047086;28;20183;-84
2023/07/01 06:38:33;;;;;;;9.57;3.87;;;;;;;15.90;100.00;100880.00;5051341;28;20517;-81
2023/07/01 06:40:58;;;;;;;5.97;3.30;;;;;;;16.26;100.00;100925.81;5053080;28;20219;-81
2023/07/01 06:43:24;;;;;;;6.40;4.10;;;;;;;16.38;100.00;100961.03;5056962;28;20215;-83
2023/07/01 06:45:49;;;;;;;10.53;3.93;;;;;;;15.90;100.00;100872.72;5054674;28;20602;-82
2023/07/01 06:48:15;;;;;;;6.07;4.30;;;;;;;16.46;100.00;100959.81;5051962;28;20202;-83
2023/07/01 06:50:40;;;;;;;7.67;4.40;;;;;;;16.39;100.00;100951.81;5049824;28;20254;-82
2023/07/01 06:53:06;;;;;;;5.30;3.83;;;;;;;16.34;100.00;100934.63;5051837;28;20667;-81
2023/07/01 06:55:31;;;;;;;7.83;3.80;;;;;;;16.17;100.00;100915.56;5053847;28;20274;-83
2023/07/01 07:01:19;;;;;;;8.97;4.00;;;;;;;16.28;100.00;100925.56;5054769;28;20458;-82
2023/07/01 07:03:44;;;;;;;6.77;4.60;;;;;;;16.34;100.00;100934.63;5051447;28;20437;-85
2023/07/01 07:06:10;;;;;;;8.63;5.13;;;;;;;16.24;100.00;100921.69;5050145;28;20188;-81
2023/07/01 07:08:36;;;;;;;6.90;4.50;;;;;;;16.24;100.00;100919.81;5052964;28;20267;-86
2023/07/01 07:11:02;;;;;;;10.80;4.53;;;;;;;15.74;100.00;100851.78;5050537;28;20211;-85
2023/07/01 07:13:28;;;;;;;8.43;4.60;;;;;;;16.09;100.00;100907.81;5052481;28;20464;-85
2023/07/01 07:15:53;;;;;;;11.63;4.70;;;;;;;16.00;100.00;100905.44;5044518;28;20210;-82
2023/07/01 07:18:18;;;;;;;7.47;5.00;;;;;;;16.11;100.00;100908.38;5048664;28;20270;-85
2023/07/01 07:20:44;;;;;;;9.37;5.00;;;;;;;15.31;100.00;100804.16;5047251;28;20213;-84
2023/07/01 07:23:09;;;;;;;11.90;5.23;;;;;;;15.99;100.00;100913.78;5056785;28;20187;-85
2023/07/01 07:25:35;;;;;;;11.27;6.57;;;;;;;15.79;100.00;100903.28;5060727;28;20190;-83
2023/07/01 07:28:03;;;;;;;10.90;6.03;;;;;;;16.03;100.00;100920.38;5057912;28;20218;-85
2023/07/01 07:30:28;;;;;;;10.43;5.47;;;;;;;15.86;100.00;100908.59;5053666;28;20469;-81
2023/07/01 07:32:54;;;;;;;9.73;5.97;;;;;;;15.51;100.00;100858.75;5051462;28;20527;-85
2023/07/01 07:37:54;;;;;;;6.70;4.63;;;;;;;15.10;100.00;100821.69;5779873;22;20235;-74
2023/07/01 07:40:20;;;;;;;9.23;5.37;;;;;;;15.02;100.00;100859.84;5009728;28;20448;-73
2023/07/01 07:42:46;;;;;;;6.63;4.73;;;;;;;14.04;100.00;100651.13;4998221;28;20251;-74
2023/07/01 07:45:12;;;;;;;13.70;6.00;;;;;;;14.28;100.00;100700.63;4997466;28;20173;-74
2023/07/01 07:47:38;;;;;;;7.50;5.40;;;;;;;16.07;100.00;101050.63;4994047;28;20256;-74
2023/07/01 07:50:04;;;;;;;6.53;5.03;;;;;;;13.78;100.00;100641.50;4978665;28;20481;-73
2023/07/01 07:52:29;;;;;;;7.43;5.90;;;;;;;14.45;100.00;100824.97;4993097;28;20251;-72
2023/07/01 07:54:55;;;;;;;5.93;5.33;;;;;;;14.64;100.00;100864.47;4979152;28;20854;-73
2023/07/01 07:57:20;;;;;;;8.03;5.93;;;;;;;14.73;100.00;100885.75;4979260;28;20764;-74
2023/07/01 07:59:46;;;;;;;6.70;5.77;;;;;;;14.36;100.00;100748.09;4976973;28;20559;-75
2023/07/01 08:02:11;;;;;;;7.53;4.93;;;;;;;15.97;100.00;101006.00;4977175;28;20295;-73
2023/07/01 08:04:37;;;;;;;8.30;5.60;;;;;;;16.17;100.00;101046.31;4976290;28;20252;-72
2023/07/01 08:07:02;;;;;;;6.90;5.00;;;;;;;15.82;100.00;101033.47;4977708;28;20260;-72
2023/07/01 08:09:29;;;;;;;6.40;5.40;;;;;;;15.41;100.00;100974.69;4993704;28;20237;-73
2023/07/01 08:11:58;;;;;;;7.97;5.47;;;;;;;15.68;100.00;101021.19;4975047;28;20205;-75
2023/07/01 08:14:24;;;;;;;5.73;4.90;;;;;;;16.43;100.00;101120.03;4975802;28;21047;-75
2023/07/01 08:16:50;;;;;;;6.53;5.13;;;;;;;16.42;100.00;101134.63;4977100;28;20453;-73
2023/07/01 08:19:15;;;;;;;5.20;4.70;;;;;;;15.48;100.00;101040.31;4976188;28;20469;-72
2023/07/01 08:21:40;;;;;;;5.50;5.00;;;;;;;15.12;100.00;100947.38;4976525;28;20190;-73
2023/07/01 08:24:09;;;;;;;8.13;5.10;;;;;;;15.86;100.00;101060.06;4971833;28;20654;-72
2023/07/01 08:26:34;;;;;;;7.03;4.23;;;;;;;16.28;100.00;101132.09;4990962;28;20194;-74
2023/07/01 08:29:00;;;;;;;6.57;4.40;;;;;;;16.59;100.00;101192.50;4969748;28;20516;-72
2023/07/01 08:31:26;;;;;;;8.30;4.80;;;;;;;16.65;100.00;101178.03;4974792;28;20186;-72
2023/07/01 08:33:51;;;;;;;4.23;3.83;;;;;;;16.24;100.00;101127.38;4973114;28;20190;-72
2023/07/01 08:36:17;;;;;;;7.20;4.63;;;;;;;16.48;100.00;101155.38;4968579;28;20444;-72
2023/07/01 08:38:42;;;;;;;6.10;5.00;;;;;;;16.34;100.00;101154.72;4971350;28;20863;-71
2023/07/01 08:41:13;;;;;;;7.03;5.37;;;;;;;16.70;100.00;101209.84;4972236;28;20192;-73
2023/07/01 08:43:39;;;;;;;7.53;4.90;;;;;;;16.01;100.00;101087.53;4969911;28;20244;-72
2023/07/01 08:46:09;;;;;;;7.10;4.77;;;;;;;15.95;100.00;101088.44;4966350;28;20441;-71
2023/07/01 08:48:37;;;;;;;5.73;4.73;;;;;;;15.95;100.00;101093.84;4973528;28;20210;-71
2023/07/01 08:51:20;;;;;;;4.40;4.00;;;;;;;16.82;100.00;101210.75;4970102;28;20514;-72
2023/07/01 08:53:47;;;;;;;6.20;4.00;;;;;;;16.88;100.00;101220.66;4967678;28;20953;-72
2023/07/01 08:56:13;;;;;;;7.13;4.70;;;;;;;16.82;100.00;101216.16;4970813;28;20945;-71
2023/07/01 08:58:45;;;;;;;8.33;4.47;;;;;;;16.65;100.00;101191.56;4970061;28;20514;-72
2023/07/01 09:01:11;;;;;;;13.77;4.90;;;;;;;15.35;100.00;100975.59;4976723;28;20445;-71
2023/07/01 09:03:39;;;;;;;9.13;4.83;;;;;;;16.14;100.00;101116.28;4972780;28;20448;-71
2023/07/01 09:06:06;;;;;;;7.80;4.93;;;;;;;16.30;100.00;101175.19;4974700;28;20305;-72
2023/07/01 09:08:33;;;;;;;7.60;5.97;;;;;;;16.75;100.00;101223.53;4975268;28;20519;-72
2023/07/01 09:10:58;;;;;;;6.43;5.27;;;;;;;16.13;100.00;101126.28;4978207;28;20476;-71
2023/07/01 09:13:25;;;;;;;6.83;6.13;;;;;;;15.97;100.00;101106.09;4973078;28;20469;-72
2023/07/01 09:15:51;;;;;;;6.77;5.80;;;;;;;15.92;100.00;101094.31;4982181;28;20620;-72
2023/07/01 09:18:28;;;;;;;7.97;6.10;;;;;;;16.83;100.00;101241.34;4976397;28;20499;-71
2023/07/01 09:20:54;;;;;;;7.60;6.40;;;;;;;16.77;100.00;101267.47;4976161;28;20230;-72
2023/07/01 09:23:31;;;;;;;7.83;5.97;;;;;;;16.02;100.00;101181.16;4973318;28;20445;-72
2023/07/01 09:26:08;;;;;;;6.90;6.17;;;;;;;16.84;100.00;101279.06;4980343;28;20459;-71
2023/07/01 09:28:35;;;;;;;7.67;6.37;;;;;;;16.76;100.00;101270.41;4973235;28;20829;-72
2023/07/01 09:31:03;;;;;;;8.73;6.60;;;;;;;16.10;100.00;101150.28;4978536;28;20552;-71
2023/07/01 09:33:29;;;;;;;6.70;5.97;;;;;;;15.51;100.00;101082.31;4986925;28;20445;-74
2023/07/01 09:36:01;;;;;;;7.23;6.43;;;;;;;16.31;100.00;101235.56;4973598;28;20441;-71
2023/07/01 09:38:27;;;;;;;7.03;6.37;;;;;;;16.30;100.00;101218.50;4987834;28;20537;-73
2023/07/01 09:40:52;;;;;;;7.10;5.87;;;;;;;16.09;100.00;101165.69;4976338;28;20941;-74
2023/07/01 09:43:33;;;;;;;6.77;6.07;;;;;;;16.50;100.00;101237.19;4976174;28;20425;-78
2023/07/01 09:46:00;;;;;;;7.83;7.13;;;;;;;15.18;100.00;101066.44;4974476;28;20226;-77
2023/07/01 09:48:26;;;;;;;8.40;7.33;;;;;;;15.22;100.00;101002.81;4987210;28;20465;-74
2023/07/01 09:50:51;;;;;;;7.03;6.37;;;;;;;14.88;100.00;100957.22;4975559;28;20209;-74
2023/07/01 09:53:24;;;;;;;6.70;5.90;;;;;;;14.13;100.00;100924.09;4978456;28;20186;-74
2023/07/01 09:55:50;;;;;;;8.27;6.73;;;;;;;15.91;100.00;101128.66;4978279;28;20288;-73
2023/07/01 09:58:16;;;;;;;8.57;6.40;;;;;;;15.30;100.00;101075.44;4980823;28;21042;-74
2023/07/01 10:00:42;;;;;;;12.40;6.43;;;;;;;14.72;100.00;100962.38;4975454;28;20257;-75
2023/07/01 10:03:08;;;;;;;8.47;7.57;;;;;;;14.19;100.00;100826.91;4972990;28;20182;-74
2023/07/01 10:05:34;;;;;;;10.30;6.30;;;;;;;14.21;100.00;100919.22;4969149;28;20862;-75
2023/07/01 10:08:00;;;;;;;6.63;6.03;;;;;;;15.02;100.00;101084.88;4975603;28;20464;-80
2023/07/01 10:10:26;;;;;;;8.20;6.60;;;;;;;17.22;100.00;101380.91;4982815;28;20473;-72
2023/07/01 10:12:54;;;;;;;6.50;5.80;;;;;;;14.56;100.00;100990.78;4969231;28;20662;-71
2023/07/01 10:15:25;;;;;;;6.80;6.20;;;;;;;16.39;100.00;101243.38;4977831;28;20492;-72
2023/07/01 10:17:55;;;;;;;8.00;6.60;;;;;;;17.17;100.00;101375.34;4973638;28;20821;-73
2023/07/01 10:20:33;;;;;;;7.70;6.87;;;;;;;17.22;100.00;101370.06;4971190;28;20485;-73
2023/07/01 10:23:03;;;;;;;8.93;6.87;;;;;;;17.20;100.00;101396.56;4969888;28;20432;-72
2023/07/01 10:25:35;;;;;;;7.60;6.80;;;;;;;17.19;100.00;101383.25;4968576;28;20527;-73
2023/07/01 10:28:01;;;;;;;7.27;6.60;;;;;;;17.29;100.00;101400.59;4966543;28;20704;-73
2023/07/01 10:30:46;;;;;;;8.00;7.07;;;;;;;16.05;100.00;101232.13;4968640;28;20477;-73
2023/07/01 10:33:27;;;;;;;8.40;7.50;;;;;;;17.05;100.00;101409.69;4970207;28;20554;-72
2023/07/01 10:36:02;;;;;;;8.63;7.57;;;;;;;17.15;100.00;101432.50;4977422;28;20449;-71
2023/07/01 10:38:30;;;;;;;10.23;9.23;;;;;;;16.28;100.00;101312.63;4976597;28;20534;-72
2023/07/01 10:40:56;;;;;;;8.70;7.80;;;;;;;16.50;100.00;101349.03;4976271;28;20541;-72
2023/07/01 10:43:23;;;;;;;9.13;8.33;;;;;;;17.21;100.00;101495.78;4980347;28;20468;-73
2023/07/01 10:46:19;;;;;;;9.50;8.37;;;;;;;17.23;100.00;101531.66;4976376;28;20499;-72
2023/07/01 10:49:03;;;;;;;9.93;7.60;;;;;;;17.27;100.00;101557.28;4974144;28;20487;-72
2023/07/01 10:51:31;;;;;;;9.00;8.20;;;;;;;16.26;100.00;101406.78;4974467;28;20515;-73
2023/07/01 10:53:58;;;;;;;9.60;8.70;;;;;;;17.37;100.00;101606.38;4975165;28;20447;-74
2023/07/01 10:56:24;;;;;;;10.60;9.60;;;;;;;17.24;100.00;101613.81;4993555;28;20450;-73
2023/07/01 10:59:18;;;;;;;9.60;8.60;;;;;;;16.66;100.00;101553.47;4998154;28;20460;-74
2023/07/01 11:01:45;;;;;;;9.60;8.13;;;;;;;17.11;100.00;101640.00;4980636;28;20453;-74
2023/07/01 11:04:11;;;;;;;9.40;7.37;;;;;;;16.69;100.00;101611.75;4977477;28;20433;-74
2023/07/01 11:06:51;;;;;;;9.10;8.20;;;;;;;17.11;100.00;101731.34;4993310;28;20472;-74
2023/07/01 11:09:37;;;;;;;8.33;7.13;;;;;;;17.44;100.00;101804.25;4977191;28;20233;-73
2023/07/01 11:12:06;;;;;;;7.60;6.90;;;;;;;16.38;100.00;101634.28;4978212;28;20472;-74
2023/07/01 11:14:34;;;;;;;7.87;6.60;;;;;;;17.44;100.00;101833.28;4979386;28;20413;-72
2023/07/01 11:17:12;;;;;;;9.93;7.50;;;;;;;16.79;100.00;101795.53;4979736;28;20427;-74
2023/07/01 11:19:37;;;;;;;8.50;7.70;;;;;;;17.15;100.00;101892.47;4978965;28;20507;-74
2023/07/01 11:22:04;;;;;;;6.67;5.97;;;;;;;16.91;100.00;101878.63;4987183;28;20434;-74
2023/07/01 11:24:29;;;;;;;4.30;3.90;;;;;;;16.64;100.00;101912.28;4978702;28;20486;-75